createdAt,value
2023-04-04T00:02:08.698Z,7.43
2023-04-04T00:04:29.029Z,5.55
2023-04-04T00:06:49.227Z,5.28
2023-04-04T00:09:09.513Z,5.93
2023-04-04T00:11:30.120Z,6.18
2023-04-04T00:13:50.873Z,5.68
2023-04-04T00:16:11.068Z,5.93
2023-04-04T00:18:32.016Z,6.38
2023-04-04T00:20:52.602Z,6.30
2023-04-04T00:23:12.834Z,6.22
2023-04-04T00:25:33.060Z,5.65
2023-04-04T00:27:53.408Z,5.65
2023-04-04T00:30:13.696Z,5.80
2023-04-04T00:32:34.111Z,5.55
2023-04-04T00:34:56.498Z,6.10
2023-04-04T00:37:17.101Z,6.32
2023-04-04T00:39:37.502Z,5.85
2023-04-04T00:41:57.725Z,6.57
2023-04-04T00:44:17.785Z,6.75
2023-04-04T00:46:37.804Z,6.18
2023-04-04T00:48:58.569Z,6.72
2023-04-04T00:51:18.621Z,5.85
2023-04-04T00:53:38.772Z,6.10
2023-04-04T00:55:58.932Z,4.95
2023-04-04T00:58:19.375Z,6.70
2023-04-04T01:00:40.405Z,5.97
2023-04-04T01:03:02.038Z,7.57
2023-04-04T01:05:22.427Z,6.75
2023-04-04T01:07:42.563Z,6.65
2023-04-04T01:10:03.462Z,7.53
2023-04-04T01:12:23.992Z,6.97
2023-04-04T01:14:43.941Z,7.40
2023-04-04T01:17:05.121Z,6.75
2023-04-04T01:19:36.761Z,6.80
2023-04-04T01:21:57.369Z,6.55
2023-04-04T01:24:18.361Z,6.78
2023-04-04T01:26:38.840Z,6.13
2023-04-04T01:28:59.325Z,5.95
2023-04-04T01:31:22.230Z,6.47
2023-04-04T01:33:54.411Z,7.10
2023-04-04T01:36:22.090Z,7.57
2023-04-04T01:38:46.680Z,7.28
2023-04-04T01:41:07.845Z,7.85
2023-04-04T01:43:30.697Z,7.35
2023-04-04T01:45:50.836Z,6.88
2023-04-04T01:48:11.485Z,7.60
2023-04-04T01:50:31.431Z,6.22
2023-04-04T01:52:51.664Z,7.70
2023-04-04T01:55:11.946Z,5.63
2023-04-04T01:57:32.333Z,7.07
2023-04-04T01:59:52.282Z,6.70
2023-04-04T02:02:12.483Z,7.28
2023-04-04T02:04:33.378Z,7.57
2023-04-04T02:06:55.320Z,8.25
2023-04-04T02:09:15.616Z,7.43
2023-04-04T02:11:35.876Z,6.97
2023-04-04T02:13:56.626Z,5.80
2023-04-04T02:16:17.635Z,6.60
2023-04-04T02:18:38.125Z,7.25
2023-04-04T02:20:58.318Z,8.00
2023-04-04T02:23:18.300Z,6.55
2023-04-04T02:25:38.599Z,5.75
2023-04-04T02:27:59.021Z,6.28
2023-04-04T02:30:19.236Z,6.50
2023-04-04T02:32:39.413Z,7.55
2023-04-04T02:34:59.464Z,7.88
2023-04-04T02:37:19.617Z,7.15
2023-04-04T02:39:39.797Z,6.55
2023-04-04T02:41:59.929Z,6.45
2023-04-04T02:44:19.967Z,5.78
2023-04-04T02:46:41.318Z,5.30
2023-04-04T02:49:01.564Z,6.32
2023-04-04T02:51:21.814Z,8.15
2023-04-04T02:53:41.914Z,6.60
2023-04-04T02:56:05.488Z,7.13
2023-04-04T02:58:27.042Z,7.05
2023-04-04T03:00:53.533Z,6.90
2023-04-04T03:03:13.837Z,7.10
2023-04-04T03:05:34.394Z,7.38
2023-04-04T03:07:58.017Z,7.43
2023-04-04T03:10:18.385Z,6.60
2023-04-04T03:12:38.660Z,7.85
2023-04-04T03:14:58.768Z,7.82
2023-04-04T03:17:18.867Z,7.55
2023-04-04T03:19:39.053Z,6.82
2023-04-04T03:21:59.161Z,6.95
2023-04-04T03:24:19.267Z,7.13
2023-04-04T03:26:39.497Z,6.05
2023-04-04T03:28:59.606Z,7.60
2023-04-04T03:31:19.826Z,6.47
2023-04-04T03:33:42.287Z,6.15
2023-04-04T03:36:02.414Z,7.93
2023-04-04T03:38:22.782Z,6.65
2023-04-04T03:40:43.549Z,7.97
2023-04-04T03:43:06.676Z,8.30
2023-04-04T03:45:26.743Z,8.43
2023-04-04T03:47:47.534Z,7.53
2023-04-04T03:50:07.651Z,6.90
2023-04-04T03:52:27.677Z,7.00
2023-04-04T03:54:47.812Z,6.57
2023-04-04T03:57:07.955Z,7.47
2023-04-04T03:59:29.209Z,7.72
2023-04-04T04:01:49.387Z,7.53
2023-04-04T04:04:09.838Z,8.68
2023-04-04T04:06:30.302Z,9.85
2023-04-04T04:08:50.402Z,8.88
2023-04-04T04:11:10.290Z,9.45
2023-04-04T04:13:30.414Z,8.85
2023-04-04T04:15:50.578Z,7.95
2023-04-04T04:18:10.819Z,8.95
2023-04-04T04:20:30.715Z,8.98
2023-04-04T04:22:52.546Z,7.53
2023-04-04T04:25:15.262Z,7.95
2023-04-04T04:27:36.067Z,7.25
2023-04-04T04:29:56.145Z,7.50
2023-04-04T04:32:19.601Z,7.20
2023-04-04T04:34:39.566Z,7.50
2023-04-04T04:36:59.854Z,6.90
2023-04-04T04:39:19.882Z,7.18
2023-04-04T04:41:40.030Z,8.13
2023-04-04T04:44:00.163Z,7.10
2023-04-04T04:46:20.094Z,6.35
2023-04-04T04:48:40.286Z,7.80
2023-04-04T04:51:00.634Z,7.80
2023-04-04T04:53:21.019Z,7.90
2023-04-04T04:55:44.783Z,7.88
2023-04-04T05:00:25.793Z,7.45
2023-04-04T05:02:46.068Z,8.48
2023-04-04T05:05:06.263Z,7.63
2023-04-04T05:07:26.695Z,6.50
2023-04-04T05:09:46.550Z,7.30
2023-04-04T05:12:07.186Z,8.07
2023-04-04T05:14:27.237Z,7.93
2023-04-04T05:16:48.697Z,8.60
2023-04-04T05:19:09.967Z,8.38
2023-04-04T05:21:30.156Z,7.07
2023-04-04T05:23:50.762Z,8.43
2023-04-04T05:26:11.087Z,7.07
2023-04-04T05:28:31.252Z,7.50
2023-04-04T05:30:51.310Z,7.82
2023-04-04T05:33:11.434Z,6.10
2023-04-04T05:35:31.440Z,6.75
2023-04-04T05:37:51.577Z,6.28
2023-04-04T05:40:11.920Z,6.85
2023-04-04T05:42:31.899Z,6.40
2023-04-04T05:44:52.105Z,6.93
2023-04-04T05:47:12.184Z,7.10
2023-04-04T05:49:32.406Z,6.95
2023-04-04T05:51:55.913Z,7.82
2023-04-04T05:54:15.972Z,5.13
2023-04-04T05:56:36.245Z,6.60
2023-04-04T05:58:56.565Z,6.57
2023-04-04T06:01:17.800Z,8.10
2023-04-04T06:03:37.943Z,7.45
2023-04-04T06:05:58.557Z,18.63
2023-04-04T06:08:18.758Z,7.88
2023-04-04T06:10:39.051Z,8.80
2023-04-04T06:12:59.671Z,8.80
2023-04-04T06:15:19.682Z,7.60
2023-04-04T06:17:40.060Z,7.68
2023-04-04T06:20:00.679Z,8.52
2023-04-04T06:22:21.040Z,6.90
2023-04-04T06:24:41.626Z,7.43
2023-04-04T06:27:02.033Z,6.63
2023-04-04T06:29:23.619Z,6.07
2023-04-04T06:31:44.132Z,6.95
2023-04-04T06:34:04.188Z,5.90
2023-04-04T06:36:24.392Z,5.93
2023-04-04T06:38:44.483Z,6.40
2023-04-04T06:41:04.731Z,6.05
2023-04-04T06:43:25.066Z,6.03
2023-04-04T06:45:45.235Z,5.15
2023-04-04T06:48:06.001Z,6.57
2023-04-04T06:50:26.536Z,6.50
2023-04-04T06:52:47.032Z,7.88
2023-04-04T06:55:07.889Z,6.90
2023-04-04T06:57:28.058Z,7.43
2023-04-04T06:59:48.443Z,6.63
2023-04-04T07:02:08.668Z,5.43
2023-04-04T07:04:32.024Z,6.53
2023-04-04T07:06:52.002Z,7.13
2023-04-04T07:09:21.936Z,6.68
2023-04-04T07:11:46.375Z,6.88
2023-04-04T07:14:06.692Z,7.13
2023-04-04T07:16:27.732Z,5.80
2023-04-04T07:18:48.191Z,7.18
2023-04-04T07:21:08.352Z,6.85
2023-04-04T07:23:28.872Z,6.63
2023-04-04T07:25:48.926Z,6.68
2023-04-04T07:28:12.681Z,6.05
2023-04-04T07:30:33.920Z,6.20
2023-04-04T07:32:58.485Z,5.75
2023-04-04T07:35:18.492Z,5.45
2023-04-04T07:37:38.865Z,5.28
2023-04-04T07:39:59.069Z,5.78
2023-04-04T07:42:22.501Z,6.38
2023-04-04T07:44:42.770Z,5.72
2023-04-04T07:47:09.949Z,4.78
2023-04-04T07:49:30.756Z,4.85
2023-04-04T07:51:51.117Z,4.72
2023-04-04T07:54:11.136Z,6.38
2023-04-04T07:56:31.478Z,5.88
2023-04-04T07:58:51.669Z,5.65
2023-04-04T08:01:11.911Z,5.40
2023-04-04T08:03:32.175Z,5.55
2023-04-04T08:05:52.712Z,5.53
2023-04-04T08:08:13.101Z,5.43
2023-04-04T08:10:33.371Z,6.47
2023-04-04T08:12:53.729Z,6.00
2023-04-04T08:15:13.863Z,5.25
2023-04-04T08:17:34.238Z,4.35
2023-04-04T08:19:54.384Z,5.35
2023-04-04T08:22:14.528Z,5.00
2023-04-04T08:24:35.966Z,5.18
2023-04-04T08:27:04.545Z,4.80
2023-04-04T08:29:26.122Z,4.70
2023-04-04T08:31:46.623Z,4.75
2023-04-04T08:34:07.763Z,4.95
2023-04-04T08:36:28.018Z,4.68
2023-04-04T08:38:48.519Z,5.43
2023-04-04T08:41:09.558Z,5.35
2023-04-04T08:43:34.674Z,5.03
2023-04-04T08:45:54.615Z,5.38
2023-04-04T08:48:16.978Z,5.22
2023-04-04T08:50:38.201Z,5.15
2023-04-04T08:53:00.924Z,5.25
2023-04-04T08:55:21.531Z,5.22
2023-04-04T08:57:42.796Z,5.00
2023-04-04T09:00:06.364Z,5.45
2023-04-04T09:02:29.485Z,5.28
2023-04-04T09:05:02.650Z,5.70
2023-04-04T09:07:27.856Z,5.97
2023-04-04T09:09:47.932Z,5.22
2023-04-04T09:12:08.520Z,5.95
2023-04-04T09:14:30.135Z,5.47
2023-04-04T09:16:50.356Z,5.18
2023-04-04T09:19:10.285Z,6.35
2023-04-04T09:21:33.260Z,6.20
2023-04-04T09:24:00.394Z,6.80
2023-04-04T09:26:20.697Z,5.40
2023-04-04T09:28:41.503Z,5.90
2023-04-04T09:31:04.098Z,6.45
2023-04-04T09:33:24.786Z,4.65
2023-04-04T09:35:46.364Z,5.22
2023-04-04T09:38:07.343Z,4.65
2023-04-04T09:40:29.431Z,5.75
2023-04-04T09:42:49.935Z,5.72
2023-04-04T09:45:11.672Z,5.22
2023-04-04T09:49:54.159Z,5.68
2023-04-04T09:52:20.713Z,5.88
2023-04-04T09:54:47.986Z,5.32
2023-04-04T09:57:08.930Z,4.35
2023-04-04T09:59:29.393Z,4.70
2023-04-04T10:01:51.762Z,4.70
2023-04-04T10:04:11.984Z,4.20
2023-04-04T10:06:32.696Z,4.03
2023-04-04T10:08:53.179Z,4.65
2023-04-04T10:11:13.641Z,4.65
2023-04-04T10:13:35.510Z,4.18
2023-04-04T10:15:56.521Z,5.65
2023-04-04T10:18:17.193Z,4.95
2023-04-04T10:20:37.990Z,4.70
2023-04-04T10:22:59.002Z,5.20
2023-04-04T10:25:19.684Z,5.60
2023-04-04T10:27:39.575Z,5.57
2023-04-04T10:30:03.093Z,4.95
2023-04-04T10:32:24.654Z,5.60
2023-04-04T10:34:54.407Z,5.00
2023-04-04T10:37:26.382Z,5.15
2023-04-04T10:39:52.671Z,4.65
2023-04-04T10:42:16.119Z,4.93
2023-04-04T10:46:58.136Z,5.35
2023-04-04T10:49:18.810Z,4.60
2023-04-04T10:51:52.867Z,4.63
2023-04-04T10:54:13.942Z,5.28
2023-04-04T10:56:34.809Z,4.57
2023-04-04T10:59:13.819Z,3.83
2023-04-04T11:01:47.880Z,5.05
2023-04-04T11:04:20.109Z,4.13
2023-04-04T11:06:59.941Z,4.53
2023-04-04T11:09:38.555Z,4.65
2023-04-04T11:12:09.143Z,6.72
2023-04-04T11:14:29.821Z,4.53
2023-04-04T11:16:52.166Z,5.55
2023-04-04T11:19:14.436Z,5.35
2023-04-04T11:21:34.767Z,4.43
2023-04-04T11:23:55.053Z,4.93
2023-04-04T11:26:27.389Z,4.68
2023-04-04T11:28:47.908Z,3.33
2023-04-04T11:31:17.632Z,4.10
2023-04-04T11:33:57.241Z,4.07
2023-04-04T11:36:24.743Z,4.05
2023-04-04T11:38:49.652Z,3.38
2023-04-04T11:41:10.022Z,3.90
2023-04-04T11:43:33.609Z,5.30
2023-04-04T11:45:55.529Z,7.40
2023-04-04T11:48:16.958Z,4.70
2023-04-04T11:50:39.226Z,5.53
2023-04-04T11:52:59.423Z,4.93
2023-04-04T11:55:22.162Z,3.45
2023-04-04T11:57:42.757Z,3.72
2023-04-04T12:00:06.384Z,5.13
2023-04-04T12:02:30.985Z,4.30
2023-04-04T12:04:52.066Z,4.15
2023-04-04T12:07:15.788Z,4.22
2023-04-04T12:09:36.676Z,4.32
2023-04-04T12:11:57.299Z,4.45
2023-04-04T12:14:22.012Z,2.90
2023-04-04T12:16:43.175Z,4.90
2023-04-04T12:19:03.388Z,4.30
2023-04-04T12:21:24.989Z,3.72
2023-04-04T12:23:48.048Z,3.33
2023-04-04T12:26:10.617Z,4.05
2023-04-04T12:28:33.427Z,4.30
2023-04-04T12:30:53.598Z,3.88
2023-04-04T12:33:13.627Z,2.90
2023-04-04T12:35:33.805Z,3.20
2023-04-04T12:38:03.421Z,4.00
2023-04-04T12:40:23.948Z,2.88
2023-04-04T12:42:44.364Z,5.20
2023-04-04T12:45:04.651Z,4.32
2023-04-04T12:47:27.554Z,4.13
2023-04-04T12:49:48.501Z,3.83
2023-04-04T12:52:17.682Z,3.10
2023-04-04T12:54:39.339Z,3.50
2023-04-04T12:57:03.451Z,3.40
2023-04-04T12:59:24.652Z,4.07
2023-04-04T13:01:45.435Z,4.53
2023-04-04T13:04:08.867Z,3.80
2023-04-04T13:06:31.231Z,3.65
2023-04-04T13:08:54.296Z,3.20
2023-04-04T13:11:14.370Z,3.40
2023-04-04T13:13:35.731Z,3.45
2023-04-04T13:15:56.061Z,3.22
2023-04-04T13:18:21.220Z,4.78
2023-04-04T13:20:41.695Z,3.53
2023-04-04T13:23:01.900Z,4.00
2023-04-04T13:25:22.045Z,3.85
2023-04-04T13:27:42.479Z,2.88
2023-04-04T13:30:03.027Z,3.45
2023-04-04T13:32:23.253Z,2.35
2023-04-04T13:34:43.270Z,4.25
2023-04-04T13:37:03.536Z,2.20
2023-04-04T13:39:23.581Z,3.25
2023-04-04T13:41:43.678Z,4.60
2023-04-04T13:44:03.856Z,3.60
2023-04-04T13:46:23.846Z,2.20
2023-04-04T13:48:44.073Z,3.55
2023-04-04T13:51:03.993Z,2.83
2023-04-04T13:53:24.355Z,2.10
2023-04-04T13:56:01.535Z,3.00
2023-04-04T13:58:24.768Z,2.67
2023-04-04T14:00:45.340Z,2.35
2023-04-04T14:03:05.423Z,2.75
2023-04-04T14:05:25.619Z,2.83
2023-04-04T14:07:46.619Z,2.53
2023-04-04T14:10:07.354Z,2.95
2023-04-04T14:12:27.605Z,2.72
2023-04-04T14:14:47.870Z,2.90
2023-04-04T14:17:07.833Z,2.70
2023-04-04T14:19:27.872Z,2.72
2023-04-04T14:21:48.800Z,2.70
2023-04-04T14:24:08.718Z,2.80
2023-04-04T14:26:28.837Z,2.80
2023-04-04T14:28:48.997Z,2.90
2023-04-04T14:31:09.149Z,2.65
2023-04-04T14:33:29.305Z,2.45
2023-04-04T14:35:50.381Z,3.03
2023-04-04T14:38:10.646Z,2.70
2023-04-04T14:40:30.973Z,2.67
2023-04-04T14:42:51.141Z,2.17
2023-04-04T14:45:11.836Z,2.50
2023-04-04T14:47:31.709Z,2.63
2023-04-04T14:49:51.709Z,2.92
2023-04-04T14:52:12.362Z,2.40
2023-04-04T14:54:32.440Z,3.78
2023-04-04T14:56:52.689Z,2.75
2023-04-04T14:59:13.382Z,2.92
2023-04-04T15:01:33.675Z,3.85
2023-04-04T15:03:54.967Z,3.55
2023-04-04T15:06:15.791Z,3.35
2023-04-04T15:08:36.015Z,3.20
2023-04-04T15:10:56.194Z,2.45
2023-04-04T15:13:16.354Z,2.78
2023-04-04T15:15:36.412Z,3.78
2023-04-04T15:17:56.759Z,2.95
2023-04-04T15:20:17.605Z,3.00
2023-04-04T15:22:39.092Z,3.30
2023-04-04T15:24:59.277Z,3.90
2023-04-04T15:27:19.645Z,3.90
2023-04-04T15:29:39.928Z,3.00
2023-04-04T15:32:00.208Z,3.72
2023-04-04T15:34:20.293Z,3.63
2023-04-04T15:36:42.050Z,3.13
2023-04-04T15:39:02.941Z,3.47
2023-04-04T15:41:23.660Z,3.28
2023-04-04T15:43:44.172Z,3.35
2023-04-04T15:46:04.921Z,2.65
2023-04-04T15:48:25.466Z,3.38
2023-04-04T15:50:46.214Z,3.67
2023-04-04T15:53:06.569Z,4.00
2023-04-04T15:55:26.953Z,4.35
2023-04-04T15:57:47.697Z,3.97
2023-04-04T16:00:08.733Z,3.75
2023-04-04T16:02:28.886Z,4.88
2023-04-04T16:04:48.973Z,7.03
2023-04-04T16:07:09.205Z,5.57
2023-04-04T16:09:29.254Z,5.13
2023-04-04T16:11:49.433Z,3.97
2023-04-04T16:14:11.455Z,3.35
2023-04-04T16:16:31.440Z,3.30
2023-04-04T16:18:51.633Z,4.45
2023-04-04T16:21:11.840Z,4.30
2023-04-04T16:23:32.595Z,4.65
2023-04-04T16:25:54.334Z,4.05
2023-04-04T16:28:14.871Z,5.25
2023-04-04T16:30:35.226Z,4.40
2023-04-04T16:32:55.345Z,4.40
2023-04-04T16:35:15.594Z,4.60
2023-04-04T16:37:35.941Z,4.25
2023-04-04T16:39:59.026Z,4.72
2023-04-04T16:44:39.658Z,4.00
2023-04-04T16:46:59.946Z,5.03
2023-04-04T16:49:20.340Z,4.75
2023-04-04T16:51:40.426Z,6.10
2023-04-04T16:54:00.723Z,4.93
2023-04-04T16:56:20.865Z,4.13
2023-04-04T16:58:42.312Z,5.30
2023-04-04T17:01:03.067Z,6.43
2023-04-04T17:03:23.408Z,6.93
2023-04-04T17:05:43.606Z,4.78
2023-04-04T17:08:03.825Z,5.13
2023-04-04T17:10:24.027Z,4.22
2023-04-04T17:12:44.094Z,4.45
2023-04-04T17:15:04.247Z,5.57
2023-04-04T17:17:24.407Z,4.32
2023-04-04T17:19:44.943Z,5.07
2023-04-04T17:22:05.439Z,6.22
2023-04-04T17:24:26.689Z,5.70
2023-04-04T17:26:48.105Z,5.60
2023-04-04T17:29:08.578Z,4.45
2023-04-04T17:31:28.863Z,5.18
2023-04-04T17:33:49.075Z,5.07
2023-04-04T17:36:09.143Z,5.10
2023-04-04T17:38:30.169Z,4.95
2023-04-04T17:40:52.116Z,4.57
2023-04-04T17:43:12.528Z,4.82
2023-04-04T17:45:32.704Z,4.57
2023-04-04T17:47:52.836Z,6.65
2023-04-04T17:50:13.061Z,7.53
2023-04-04T17:52:33.453Z,6.15
2023-04-04T17:54:53.583Z,6.35
2023-04-04T17:57:14.050Z,7.05
2023-04-04T17:59:34.361Z,6.55
2023-04-04T18:01:55.162Z,5.03
2023-04-04T18:04:16.062Z,6.22
2023-04-04T18:06:39.048Z,6.55
2023-04-04T18:09:00.762Z,6.10
2023-04-04T18:11:21.418Z,6.20
2023-04-04T18:13:42.166Z,5.13
2023-04-04T18:16:03.035Z,4.60
2023-04-04T18:18:24.172Z,4.93
2023-04-04T18:20:44.549Z,5.53
2023-04-04T18:23:05.299Z,29.48
2023-04-04T18:25:25.862Z,13.68
2023-04-04T18:27:45.908Z,8.30
2023-04-04T18:30:06.551Z,9.90
2023-04-04T18:32:27.843Z,7.45
2023-04-04T18:34:47.873Z,4.43
2023-04-04T18:37:08.059Z,16.55
2023-04-04T18:39:28.555Z,12.73
2023-04-04T18:41:50.792Z,8.52
2023-04-04T18:44:11.353Z,4.87
2023-04-04T18:46:31.897Z,8.27
2023-04-04T18:48:51.972Z,5.82
2023-04-04T18:51:12.083Z,6.35
2023-04-04T18:53:32.454Z,6.45
2023-04-04T18:55:52.742Z,6.05
2023-04-04T18:58:12.877Z,5.40
2023-04-04T19:00:33.224Z,6.07
2023-04-04T19:02:53.673Z,7.22
2023-04-04T19:05:14.259Z,6.10
2023-04-04T19:07:35.073Z,7.32
2023-04-04T19:09:56.010Z,6.88
2023-04-04T19:12:15.764Z,6.47
2023-04-04T19:14:35.981Z,7.43
2023-04-04T19:16:56.575Z,8.25
2023-04-04T19:19:17.972Z,6.38
2023-04-04T19:21:38.243Z,5.40
2023-04-04T19:23:58.694Z,5.93
2023-04-04T19:26:19.320Z,5.85
2023-04-04T19:28:40.600Z,8.48
2023-04-04T19:31:03.680Z,11.00
2023-04-04T19:33:27.772Z,8.85
2023-04-04T19:35:53.613Z,8.90
2023-04-04T19:38:17.892Z,8.40
2023-04-04T19:40:47.774Z,7.70
2023-04-04T19:43:08.175Z,6.72
2023-04-04T19:45:44.470Z,6.60
2023-04-04T19:48:08.633Z,9.80
2023-04-04T19:50:37.371Z,9.88
2023-04-04T19:52:58.378Z,6.85
2023-04-04T19:55:32.983Z,7.00
2023-04-04T19:57:53.651Z,7.88
2023-04-04T20:00:17.081Z,10.90
2023-04-04T20:02:40.455Z,10.57
2023-04-04T20:07:20.917Z,10.98
2023-04-04T20:09:41.373Z,10.65
2023-04-04T20:12:01.585Z,8.27
2023-04-04T20:14:21.689Z,8.77
2023-04-04T20:16:41.880Z,6.82
2023-04-04T20:19:05.371Z,6.63
2023-04-04T20:21:27.670Z,6.03
2023-04-04T20:23:52.707Z,7.13
2023-04-04T20:26:15.452Z,7.00
2023-04-04T20:28:36.137Z,6.85
2023-04-04T20:30:56.876Z,7.38
2023-04-04T20:33:33.632Z,9.68
2023-04-04T20:35:53.878Z,6.95
2023-04-04T20:38:20.703Z,9.30
2023-04-04T20:40:41.071Z,8.70
2023-04-04T20:43:01.420Z,6.95
2023-04-04T20:45:27.719Z,5.65
2023-04-04T20:47:47.737Z,6.30
2023-04-04T20:50:17.110Z,6.95
2023-04-04T20:52:37.632Z,6.90
2023-04-04T20:54:57.747Z,6.75
2023-04-04T20:57:23.912Z,6.57
2023-04-04T20:59:43.981Z,5.30
2023-04-04T21:02:11.918Z,6.43
2023-04-04T21:04:32.250Z,6.00
2023-04-04T21:06:56.848Z,6.38
2023-04-04T21:09:17.145Z,6.00
2023-04-04T21:11:37.571Z,6.38
2023-04-04T21:13:57.957Z,5.78
2023-04-04T21:16:19.141Z,7.60
2023-04-04T21:18:40.787Z,6.32
2023-04-04T21:21:11.943Z,7.05
2023-04-04T21:23:32.925Z,5.63
2023-04-04T21:26:03.359Z,6.55
2023-04-04T21:28:33.805Z,5.95
2023-04-04T21:30:54.045Z,6.43
2023-04-04T21:33:17.840Z,5.47
2023-04-04T21:35:46.342Z,4.57
2023-04-04T21:38:06.472Z,7.13
2023-04-04T21:40:26.719Z,5.43
2023-04-04T21:42:47.555Z,5.60
2023-04-04T21:45:07.860Z,5.70
2023-04-04T21:47:29.639Z,6.35
2023-04-04T21:49:49.896Z,7.32
2023-04-04T21:52:10.928Z,6.30
2023-04-04T21:54:31.180Z,4.90
2023-04-04T21:56:51.271Z,5.80
2023-04-04T21:59:11.626Z,7.22
2023-04-04T22:01:32.207Z,6.13
2023-04-04T22:03:52.903Z,6.55
2023-04-04T22:06:13.435Z,5.60
2023-04-04T22:08:34.085Z,5.72
2023-04-04T22:10:58.002Z,6.25
2023-04-04T22:13:21.704Z,6.10
2023-04-04T22:15:46.219Z,5.75
2023-04-04T22:18:14.050Z,6.20
2023-04-04T22:20:34.548Z,6.93
2023-04-04T22:22:57.108Z,6.57
2023-04-04T22:25:17.538Z,6.88
2023-04-04T22:27:37.586Z,6.50
2023-04-04T22:29:57.926Z,5.28
2023-04-04T22:32:18.157Z,7.00
2023-04-04T22:34:38.232Z,5.70
2023-04-04T22:37:02.812Z,5.90
2023-04-04T22:39:23.184Z,6.47
2023-04-04T22:41:43.701Z,5.95
2023-04-04T22:44:04.071Z,5.43
2023-04-04T22:46:28.119Z,6.43
2023-04-04T22:48:48.243Z,5.93
2023-04-04T22:51:08.447Z,4.07
2023-04-04T22:53:28.884Z,5.22
2023-04-04T22:55:48.916Z,5.80
2023-04-04T22:58:09.542Z,5.82
2023-04-04T23:00:29.876Z,5.88
2023-04-04T23:02:53.350Z,5.72
2023-04-04T23:05:15.460Z,4.32
2023-04-04T23:07:36.827Z,5.20
2023-04-04T23:09:57.423Z,5.50
2023-04-04T23:12:17.510Z,5.35
2023-04-04T23:14:38.201Z,5.38
2023-04-04T23:16:58.676Z,5.63
2023-04-04T23:19:18.978Z,6.72
2023-04-04T23:21:39.063Z,5.80
2023-04-04T23:23:59.155Z,6.95
2023-04-04T23:26:19.175Z,6.93
2023-04-04T23:28:39.413Z,6.22
2023-04-04T23:30:59.787Z,5.82
2023-04-04T23:33:20.013Z,7.78
2023-04-04T23:35:40.205Z,5.88
2023-04-04T23:38:00.290Z,6.13
2023-04-04T23:40:20.708Z,5.90
2023-04-04T23:42:41.190Z,6.30
2023-04-04T23:45:01.618Z,6.47
2023-04-04T23:47:21.919Z,5.85
2023-04-04T23:49:41.968Z,6.65
2023-04-04T23:52:02.063Z,5.55
2023-04-04T23:54:22.726Z,5.70
2023-04-04T23:56:42.708Z,5.70
2023-04-04T23:59:03.430Z,6.22
